createdAt,value
2019-05-30T00:02:12.500Z,77.10
2019-05-30T00:06:23.254Z,77.50
2019-05-30T00:10:33.440Z,78.00
2019-05-30T00:14:43.721Z,79.60
2019-05-30T00:18:56.619Z,79.00
2019-05-30T00:23:06.878Z,78.50
2019-05-30T00:27:17.278Z,77.60
2019-05-30T00:31:27.574Z,77.70
2019-05-30T00:35:37.756Z,78.50
2019-05-30T00:39:47.951Z,79.30
2019-05-30T00:43:58.165Z,79.80
2019-05-30T00:48:09.423Z,80.40
2019-05-30T00:52:19.623Z,80.70
2019-05-30T00:56:29.927Z,81.10
2019-05-30T01:00:44.166Z,81.90
2019-05-30T01:04:56.959Z,82.30
2019-05-30T01:09:07.550Z,83.00
2019-05-30T01:13:17.847Z,83.30
2019-05-30T01:17:29.646Z,83.30
2019-05-30T01:21:40.878Z,83.80
2019-05-30T01:25:52.816Z,83.90
2019-05-30T01:30:05.630Z,84.10
2019-05-30T01:34:16.094Z,84.40
2019-05-30T01:38:26.956Z,84.50
2019-05-30T01:42:38.291Z,84.70
2019-05-30T01:46:48.481Z,85.00
2019-05-30T01:51:00.321Z,85.40
2019-05-30T01:55:10.932Z,85.60
2019-05-30T01:59:21.215Z,85.40
2019-05-30T02:03:33.345Z,85.70
2019-05-30T02:07:43.543Z,86.20
2019-05-30T02:11:53.735Z,86.40
2019-05-30T02:16:04.020Z,86.40
2019-05-30T02:20:14.756Z,86.80
2019-05-30T02:24:25.122Z,87.10
2019-05-30T02:28:35.446Z,87.70
2019-05-30T02:32:46.836Z,88.00
2019-05-30T02:36:58.571Z,88.70
2019-05-30T02:41:12.250Z,88.30
2019-05-30T02:45:23.787Z,88.40
2019-05-30T02:49:35.526Z,88.50
2019-05-30T02:53:45.766Z,88.70
2019-05-30T02:57:57.394Z,89.30
2019-05-30T03:02:12.369Z,89.60
2019-05-30T03:06:19.717Z,90.10
2019-05-30T03:10:30.981Z,90.40
2019-05-30T03:14:41.399Z,90.90
2019-05-30T03:18:52.266Z,91.40
2019-05-30T03:23:04.814Z,91.50
2019-05-30T03:27:14.478Z,91.70
2019-05-30T03:31:29.206Z,91.80
2019-05-30T03:35:42.901Z,91.50
2019-05-30T03:39:49.577Z,91.00
2019-05-30T03:44:00.053Z,90.60
2019-05-30T03:48:14.249Z,90.00
2019-05-30T03:52:27.677Z,88.10
2019-05-30T03:56:59.006Z,86.10
2019-05-30T04:01:14.815Z,84.80
2019-05-30T04:05:31.153Z,84.10
2019-05-30T04:09:43.994Z,83.10
2019-05-30T04:14:00.017Z,82.60
2019-05-30T04:18:12.519Z,81.70
2019-05-30T04:22:23.478Z,80.80
2019-05-30T04:26:33.905Z,79.40
2019-05-30T04:30:44.204Z,77.40
2019-05-30T04:34:54.440Z,76.60
2019-05-30T04:39:08.631Z,74.90
2019-05-30T04:43:20.217Z,73.80
2019-05-30T04:47:30.929Z,72.70
2019-05-30T04:51:41.274Z,71.10
2019-05-30T04:55:51.580Z,70.50
2019-05-30T05:00:03.522Z,69.20
2019-05-30T05:04:15.349Z,69.00
2019-05-30T05:08:25.728Z,67.40
2019-05-30T05:12:36.142Z,65.60
2019-05-30T05:16:46.503Z,64.00
2019-05-30T05:20:56.709Z,63.60
2019-05-30T05:25:07.989Z,62.80
2019-05-30T05:29:18.324Z,61.10
2019-05-30T05:33:28.560Z,61.60
2019-05-30T05:37:38.911Z,62.80
2019-05-30T05:41:49.250Z,63.10
2019-05-30T05:45:59.542Z,63.00
2019-05-30T05:50:10.562Z,62.00
2019-05-30T05:54:21.367Z,62.30
2019-05-30T05:58:31.688Z,61.20
2019-05-30T06:02:41.885Z,59.80
2019-05-30T06:06:52.189Z,59.30
2019-05-30T06:11:02.510Z,59.10
2019-05-30T06:15:12.986Z,57.70
2019-05-30T06:19:23.287Z,55.00
2019-05-30T06:23:33.791Z,53.20
2019-05-30T06:27:45.243Z,52.20
2019-05-30T06:31:55.535Z,51.30
2019-05-30T06:36:05.928Z,49.80
2019-05-30T06:40:17.046Z,49.10
2019-05-30T06:44:28.086Z,49.20
2019-05-30T06:48:38.515Z,49.00
2019-05-30T06:52:48.886Z,47.10
2019-05-30T06:56:59.190Z,47.50
2019-05-30T07:01:09.635Z,44.60
2019-05-30T07:05:22.921Z,44.40
2019-05-30T07:09:33.732Z,45.00
2019-05-30T07:13:44.052Z,45.20
2019-05-30T07:17:54.408Z,44.30
2019-05-30T07:22:05.244Z,43.60
2019-05-30T07:26:17.941Z,42.60
2019-05-30T07:30:28.321Z,42.80
2019-05-30T07:34:39.439Z,43.10
2019-05-30T07:38:49.843Z,42.50
2019-05-30T07:43:00.199Z,41.30
2019-05-30T07:47:10.506Z,41.60
2019-05-30T07:51:24.326Z,41.50
2019-05-30T07:55:33.187Z,42.80
2019-05-30T07:59:43.590Z,43.20
2019-05-30T08:03:53.927Z,42.70
2019-05-30T08:08:04.790Z,42.20
2019-05-30T08:12:15.253Z,41.80
2019-05-30T08:16:25.556Z,41.40
2019-05-30T08:20:35.985Z,41.20
2019-05-30T08:24:46.446Z,41.20
2019-05-30T08:28:56.833Z,40.80
2019-05-30T08:33:08.677Z,39.10
2019-05-30T08:37:19.067Z,38.60
2019-05-30T08:41:29.357Z,38.50
2019-05-30T08:45:40.030Z,38.50
2019-05-30T08:49:50.399Z,38.80
2019-05-30T08:54:00.711Z,39.20
2019-05-30T08:58:11.248Z,38.00
2019-05-30T09:02:21.817Z,36.30
2019-05-30T09:06:32.334Z,35.70
2019-05-30T09:10:42.717Z,36.00
2019-05-30T09:14:52.990Z,34.90
2019-05-30T09:19:03.388Z,32.80
2019-05-30T09:23:13.698Z,33.00
2019-05-30T09:27:23.970Z,33.10
2019-05-30T09:31:34.284Z,31.20
2019-05-30T09:35:44.961Z,32.00
2019-05-30T09:39:55.292Z,31.80
2019-05-30T09:44:05.772Z,32.50
2019-05-30T09:48:16.079Z,32.20
2019-05-30T09:52:26.379Z,31.80
2019-05-30T09:56:36.611Z,31.20
2019-05-30T10:00:50.292Z,30.80
2019-05-30T10:05:00.887Z,30.70
2019-05-30T10:09:12.171Z,30.00
2019-05-30T10:13:22.631Z,30.20
2019-05-30T10:17:32.821Z,30.00
2019-05-30T10:21:43.073Z,30.00
2019-05-30T10:25:53.858Z,30.30
2019-05-30T10:30:10.608Z,30.40
2019-05-30T10:34:20.940Z,30.30
2019-05-30T10:38:31.164Z,29.90
2019-05-30T10:42:41.536Z,29.40
2019-05-30T10:46:52.844Z,29.70
2019-05-30T10:51:03.263Z,29.60
2019-05-30T10:55:14.040Z,29.50
2019-05-30T10:59:24.416Z,30.30
2019-05-30T11:03:34.729Z,29.60
2019-05-30T11:08:05.553Z,29.10
2019-05-30T11:12:11.574Z,29.50
2019-05-30T11:16:21.871Z,29.30
2019-05-30T11:20:32.474Z,30.00
2019-05-30T11:24:42.919Z,30.00
2019-05-30T11:28:54.674Z,28.80
2019-05-30T11:33:05.980Z,28.30
2019-05-30T11:41:28.370Z,29.30
2019-05-30T11:45:38.984Z,29.60
2019-05-30T11:49:49.567Z,29.70
2019-05-30T11:54:01.036Z,29.20
2019-05-30T11:58:12.319Z,29.40
2019-05-30T12:02:24.294Z,28.70
2019-05-30T12:06:34.516Z,29.10
2019-05-30T12:10:44.821Z,29.30
2019-05-30T12:14:55.257Z,29.20
2019-05-30T12:19:05.504Z,29.40
2019-05-30T12:23:15.807Z,29.80
2019-05-30T12:27:26.196Z,29.00
2019-05-30T12:31:36.632Z,29.90
2019-05-30T12:35:46.984Z,29.40
2019-05-30T12:39:58.577Z,30.10
2019-05-30T12:44:09.236Z,30.40
2019-05-30T12:48:19.544Z,30.60
2019-05-30T12:52:30.715Z,30.70
2019-05-30T12:56:42.500Z,30.70
2019-05-30T13:00:54.622Z,31.50
2019-05-30T13:05:07.186Z,31.80
2019-05-30T13:09:17.553Z,30.80
2019-05-30T13:13:27.810Z,32.30
2019-05-30T13:17:38.037Z,32.20
2019-05-30T13:21:48.270Z,32.50
2019-05-30T13:25:59.568Z,32.70
2019-05-30T13:30:12.107Z,32.90
2019-05-30T13:34:22.422Z,32.60
2019-05-30T13:38:32.724Z,32.50
2019-05-30T13:42:43.151Z,32.90
2019-05-30T13:46:53.388Z,32.90
2019-05-30T13:51:04.780Z,32.90
2019-05-30T13:55:15.563Z,33.60
2019-05-30T13:59:25.806Z,33.50
2019-05-30T14:03:36.130Z,32.80
2019-05-30T14:07:46.612Z,32.60
2019-05-30T14:11:56.950Z,32.40
2019-05-30T14:16:09.082Z,32.30
2019-05-30T14:20:19.842Z,32.50
2019-05-30T14:24:30.142Z,32.30
2019-05-30T14:28:40.708Z,32.20
2019-05-30T14:32:51.178Z,32.70
2019-05-30T14:37:02.390Z,32.80
2019-05-30T14:41:13.499Z,32.20
2019-05-30T14:45:24.185Z,31.90
2019-05-30T14:49:34.528Z,31.90
2019-05-30T14:53:44.862Z,32.20
2019-05-30T14:57:58.008Z,31.60
2019-05-30T15:02:07.164Z,31.70
2019-05-30T15:06:17.897Z,32.60
2019-05-30T15:10:28.432Z,33.00
2019-05-30T15:14:38.724Z,33.10
2019-05-30T15:18:49.174Z,32.60
2019-05-30T15:22:59.359Z,33.30
2019-05-30T15:27:10.070Z,33.00
2019-05-30T15:31:20.372Z,33.90
2019-05-30T15:35:30.876Z,33.60
2019-05-30T15:39:41.326Z,34.30
2019-05-30T15:43:51.716Z,35.00
2019-05-30T15:48:02.087Z,35.10
2019-05-30T15:52:13.329Z,35.60
2019-05-30T15:56:23.565Z,36.20
2019-05-30T16:00:36.918Z,36.60
2019-05-30T16:04:46.744Z,36.40
2019-05-30T16:08:57.081Z,36.70
2019-05-30T16:13:07.424Z,37.00
2019-05-30T16:17:17.814Z,37.80
2019-05-30T16:21:28.228Z,38.40
2019-05-30T16:25:38.532Z,39.50
2019-05-30T16:29:48.878Z,40.00
2019-05-30T16:33:59.220Z,40.20
2019-05-30T16:38:09.606Z,40.80
2019-05-30T16:42:20.274Z,40.80
2019-05-30T16:46:30.745Z,40.50
2019-05-30T16:50:41.085Z,41.10
2019-05-30T16:54:51.410Z,41.80
2019-05-30T16:59:01.822Z,42.20
2019-05-30T17:03:12.283Z,42.60
2019-05-30T17:07:23.371Z,42.90
2019-05-30T17:11:33.945Z,43.40
2019-05-30T17:15:44.314Z,43.80
2019-05-30T17:19:54.632Z,44.10
2019-05-30T17:24:05.035Z,44.30
2019-05-30T17:28:15.485Z,44.00
2019-05-30T17:32:25.956Z,45.20
2019-05-30T17:36:36.340Z,44.90
2019-05-30T17:40:49.818Z,45.40
2019-05-30T17:45:00.216Z,45.60
2019-05-30T17:49:12.089Z,46.20
2019-05-30T17:53:23.594Z,46.50
2019-05-30T17:57:34.283Z,47.10
2019-05-30T18:01:44.568Z,47.30
2019-05-30T18:05:54.870Z,47.80
2019-05-30T18:10:07.584Z,48.30
2019-05-30T18:14:17.828Z,48.60
2019-05-30T18:18:29.241Z,49.30
2019-05-30T18:22:39.666Z,49.70
2019-05-30T18:26:50.018Z,50.60
2019-05-30T18:31:00.324Z,51.40
2019-05-30T18:35:11.777Z,53.20
2019-05-30T18:39:22.395Z,52.70
2019-05-30T18:43:33.027Z,53.10
2019-05-30T18:47:43.587Z,53.40
2019-05-30T18:51:54.681Z,53.60
2019-05-30T18:56:07.791Z,54.10
2019-05-30T19:00:18.599Z,54.30
2019-05-30T19:04:29.592Z,54.60
2019-05-30T19:08:40.013Z,54.90
2019-05-30T19:12:50.284Z,55.20
2019-05-30T19:17:00.586Z,55.70
2019-05-30T19:21:10.907Z,56.50
2019-05-30T19:25:22.901Z,56.80
2019-05-30T19:29:33.223Z,57.00
2019-05-30T19:33:43.569Z,57.30
2019-05-30T19:37:53.931Z,57.80
2019-05-30T19:42:04.324Z,58.50
2019-05-30T19:46:15.318Z,58.90
2019-05-30T19:50:26.148Z,59.40
2019-05-30T19:54:37.250Z,59.80
2019-05-30T19:58:47.574Z,60.20
2019-05-30T20:02:58.201Z,60.70
2019-05-30T20:07:08.495Z,61.10
2019-05-30T20:11:19.122Z,61.60
2019-05-30T20:15:29.495Z,61.80
2019-05-30T20:19:40.038Z,62.00
2019-05-30T20:23:56.515Z,62.20
2019-05-30T20:28:02.349Z,62.40
2019-05-30T20:32:12.892Z,62.90
2019-05-30T20:36:23.194Z,63.50
2019-05-30T20:40:34.816Z,63.70
2019-05-30T20:44:47.110Z,64.10
2019-05-30T20:48:57.534Z,64.10
2019-05-30T20:53:07.780Z,64.20
2019-05-30T20:57:18.161Z,64.20
2019-05-30T21:01:28.504Z,64.40
2019-05-30T21:05:39.933Z,64.50
2019-05-30T21:09:50.677Z,64.60
2019-05-30T21:14:02.923Z,65.00
2019-05-30T21:23:24.557Z,65.30
2019-05-30T21:27:34.872Z,65.40
2019-05-30T21:31:45.646Z,65.80
2019-05-30T21:35:55.968Z,65.80
2019-05-30T21:40:10.266Z,65.40
2019-05-30T21:44:20.666Z,65.10
2019-05-30T21:48:31.090Z,64.80
2019-05-30T21:52:41.579Z,64.70
2019-05-30T21:56:51.958Z,64.50
2019-05-30T22:01:20.742Z,64.50
2019-05-30T22:05:30.937Z,64.50
2019-05-30T22:09:41.350Z,64.40
2019-05-30T22:13:52.037Z,64.40
2019-05-30T22:18:03.638Z,64.40
2019-05-30T22:22:13.864Z,64.20
2019-05-30T22:26:24.160Z,64.20
2019-05-30T22:30:34.460Z,64.10
2019-05-30T22:34:44.792Z,64.20
2019-05-30T22:38:55.114Z,64.40
2019-05-30T22:43:05.483Z,64.50
2019-05-30T22:47:16.141Z,64.60
2019-05-30T22:51:27.609Z,64.70
2019-05-30T22:55:37.982Z,64.70
2019-05-30T22:59:48.827Z,64.50
2019-05-30T23:03:59.178Z,64.70
2019-05-30T23:08:09.433Z,64.70
2019-05-30T23:12:19.627Z,64.80
2019-05-30T23:16:29.841Z,64.90
2019-05-30T23:20:40.093Z,65.00
2019-05-30T23:24:52.278Z,65.10
2019-05-30T23:29:02.931Z,65.10
2019-05-30T23:33:13.124Z,65.10
2019-05-30T23:37:23.355Z,65.10
2019-05-30T23:41:33.834Z,65.10
2019-05-30T23:45:44.202Z,65.20
2019-05-30T23:49:55.851Z,65.30
2019-05-30T23:54:06.428Z,65.20
2019-05-30T23:58:16.767Z,65.40
